createdAt,value
2022-09-16T00:00:23.955Z,2.13
2022-09-16T00:02:15.012Z,2.60
2022-09-16T00:04:07.118Z,1.50
2022-09-16T00:05:57.738Z,1.88
2022-09-16T00:07:48.242Z,1.25
2022-09-16T00:09:38.988Z,1.67
2022-09-16T00:11:31.865Z,1.58
2022-09-16T00:13:22.404Z,1.70
2022-09-16T00:15:12.755Z,1.83
2022-09-16T00:17:03.376Z,1.73
2022-09-16T00:18:54.242Z,1.50
2022-09-16T00:20:47.980Z,1.52
2022-09-16T00:22:38.529Z,2.00
2022-09-16T00:24:29.357Z,1.23
2022-09-16T00:26:19.951Z,1.67
2022-09-16T00:28:10.745Z,1.92
2022-09-16T00:30:01.414Z,2.00
2022-09-16T00:31:51.721Z,1.67
2022-09-16T00:33:42.502Z,1.70
2022-09-16T00:35:32.696Z,2.15
2022-09-16T00:37:24.392Z,1.95
2022-09-16T00:39:14.977Z,1.70
2022-09-16T00:41:06.009Z,1.50
2022-09-16T00:42:56.412Z,1.50
2022-09-16T00:44:56.403Z,1.30
2022-09-16T00:46:48.540Z,1.20
2022-09-16T00:48:39.809Z,1.63
2022-09-16T00:50:34.467Z,1.85
2022-09-16T00:52:26.443Z,1.63
2022-09-16T00:54:19.225Z,1.17
2022-09-16T00:56:12.852Z,1.27
2022-09-16T00:58:06.541Z,1.80
2022-09-16T00:59:57.703Z,1.40
2022-09-16T01:01:48.549Z,1.63
2022-09-16T01:03:42.477Z,1.15
2022-09-16T01:05:34.217Z,1.60
2022-09-16T01:07:31.362Z,1.80
2022-09-16T01:09:23.447Z,1.20
2022-09-16T01:11:13.792Z,1.30
2022-09-16T01:13:06.863Z,1.27
2022-09-16T01:14:57.846Z,1.42
2022-09-16T01:16:53.238Z,1.92
2022-09-16T01:18:50.164Z,1.33
2022-09-16T01:21:03.694Z,1.63
2022-09-16T01:23:18.268Z,1.50
2022-09-16T01:25:20.979Z,1.13
2022-09-16T01:27:30.301Z,4.15
2022-09-16T01:30:05.613Z,4.43
2022-09-16T01:32:02.586Z,1.95
2022-09-16T01:33:58.629Z,2.38
2022-09-16T01:35:58.048Z,1.95
2022-09-16T01:37:54.420Z,1.58
2022-09-16T01:39:48.330Z,2.22
2022-09-16T01:41:45.480Z,2.25
2022-09-16T01:43:43.406Z,2.10
2022-09-16T01:45:38.154Z,1.60
2022-09-16T01:47:36.244Z,1.52
2022-09-16T01:49:36.997Z,1.67
2022-09-16T01:51:30.729Z,1.88
2022-09-16T01:53:23.305Z,2.17
2022-09-16T01:55:17.325Z,1.80
2022-09-16T01:57:11.749Z,1.98
2022-09-16T01:59:05.238Z,1.70
2022-09-16T02:00:59.245Z,2.10
2022-09-16T02:02:54.206Z,1.45
2022-09-16T02:04:48.551Z,2.38
2022-09-16T02:06:39.784Z,1.95
2022-09-16T02:08:33.495Z,1.67
2022-09-16T02:10:27.974Z,1.67
2022-09-16T02:12:21.574Z,1.45
2022-09-16T02:14:15.633Z,1.77
2022-09-16T02:16:09.984Z,1.55
2022-09-16T02:18:05.583Z,1.63
2022-09-16T02:20:00.110Z,1.85
2022-09-16T02:21:51.754Z,1.98
2022-09-16T02:23:46.732Z,1.73
2022-09-16T02:25:39.319Z,2.03
2022-09-16T02:27:30.839Z,1.60
2022-09-16T02:29:23.457Z,1.48
2022-09-16T02:31:14.341Z,1.75
2022-09-16T02:33:07.757Z,2.00
2022-09-16T02:34:58.684Z,1.95
2022-09-16T02:36:53.351Z,1.90
2022-09-16T02:38:46.257Z,2.88
2022-09-16T02:40:42.173Z,1.73
2022-09-16T02:42:33.734Z,1.70
2022-09-16T02:44:25.495Z,2.38
2022-09-16T02:46:22.393Z,1.45
2022-09-16T02:48:18.794Z,1.70
2022-09-16T02:50:11.831Z,1.45
2022-09-16T02:52:09.570Z,1.40
2022-09-16T02:54:03.157Z,1.20
2022-09-16T02:55:55.378Z,1.02
2022-09-16T02:59:36.080Z,1.50
2022-09-16T03:01:27.399Z,0.90
2022-09-16T03:03:19.076Z,1.50
2022-09-16T03:07:00.596Z,0.85
2022-09-16T03:08:51.773Z,1.42
2022-09-16T03:10:43.895Z,0.82
2022-09-16T03:12:54.304Z,1.10
2022-09-16T03:15:28.600Z,1.10
2022-09-16T03:17:30.105Z,0.90
2022-09-16T03:19:26.939Z,1.15
2022-09-16T03:21:19.742Z,1.50
2022-09-16T03:23:17.190Z,1.95
2022-09-16T03:25:13.398Z,1.30
2022-09-16T03:27:08.724Z,1.15
2022-09-16T03:29:06.295Z,1.48
2022-09-16T03:31:01.825Z,1.30
2022-09-16T03:32:56.805Z,1.50
2022-09-16T03:34:52.637Z,1.83
2022-09-16T03:36:46.128Z,1.40
2022-09-16T03:38:37.922Z,1.50
2022-09-16T03:40:30.011Z,1.27
2022-09-16T03:42:21.112Z,2.40
2022-09-16T03:44:11.609Z,1.10
2022-09-16T03:46:02.265Z,1.25
2022-09-16T03:47:53.385Z,1.50
2022-09-16T03:49:43.809Z,1.48
2022-09-16T03:51:35.727Z,2.03
2022-09-16T03:53:26.190Z,1.90
2022-09-16T03:55:17.234Z,1.40
2022-09-16T03:57:07.753Z,2.33
2022-09-16T03:58:58.787Z,1.90
2022-09-16T04:00:49.634Z,1.63
2022-09-16T04:02:40.041Z,1.55
2022-09-16T04:04:30.832Z,1.45
2022-09-16T04:06:21.212Z,1.98
2022-09-16T04:08:13.451Z,1.83
2022-09-16T04:10:04.434Z,3.00
2022-09-16T04:11:54.903Z,2.38
2022-09-16T04:13:45.160Z,2.00
2022-09-16T04:15:36.882Z,2.15
2022-09-16T04:17:27.228Z,1.90
2022-09-16T04:19:18.616Z,1.50
2022-09-16T04:21:09.944Z,1.85
2022-09-16T04:23:00.520Z,1.88
2022-09-16T04:24:52.302Z,1.88
2022-09-16T04:26:43.151Z,2.45
2022-09-16T04:28:34.533Z,1.77
2022-09-16T04:30:25.013Z,1.98
2022-09-16T04:32:15.408Z,2.17
2022-09-16T04:34:06.150Z,1.60
2022-09-16T04:36:03.306Z,1.52
2022-09-16T04:37:53.499Z,1.90
2022-09-16T04:39:44.225Z,2.10
2022-09-16T04:41:35.953Z,2.00
2022-09-16T04:43:26.346Z,2.53
2022-09-16T04:45:16.882Z,1.90
2022-09-16T04:47:07.320Z,2.05
2022-09-16T04:48:58.763Z,2.00
2022-09-16T04:50:49.411Z,1.98
2022-09-16T04:52:40.256Z,1.95
2022-09-16T04:54:30.642Z,1.90
2022-09-16T04:56:23.056Z,2.30
2022-09-16T05:00:05.661Z,2.38
2022-09-16T05:01:56.416Z,1.87
2022-09-16T05:03:48.029Z,1.85
2022-09-16T05:05:38.642Z,1.70
2022-09-16T05:07:29.115Z,2.00
2022-09-16T05:09:19.798Z,2.17
2022-09-16T05:11:11.595Z,1.60
2022-09-16T05:13:02.299Z,2.30
2022-09-16T05:14:53.979Z,1.95
2022-09-16T05:16:45.433Z,2.15
2022-09-16T05:18:36.759Z,2.00
2022-09-16T05:20:27.078Z,2.00
2022-09-16T05:22:17.508Z,2.28
2022-09-16T05:24:09.599Z,1.92
2022-09-16T05:27:52.976Z,1.95
2022-09-16T05:29:43.740Z,1.95
2022-09-16T05:31:37.203Z,1.75
2022-09-16T05:33:27.591Z,1.85
2022-09-16T05:35:18.218Z,1.50
2022-09-16T05:37:08.596Z,3.92
2022-09-16T05:39:21.633Z,1.85
2022-09-16T05:41:10.911Z,1.83
2022-09-16T05:43:01.511Z,2.20
2022-09-16T05:44:52.057Z,1.88
2022-09-16T05:46:43.923Z,1.52
2022-09-16T05:50:25.933Z,1.42
2022-09-16T05:52:16.536Z,1.83
2022-09-16T05:54:07.445Z,1.42
2022-09-16T05:55:59.453Z,1.50
2022-09-16T05:57:49.897Z,1.48
2022-09-16T05:59:40.147Z,1.63
2022-09-16T06:01:32.161Z,1.48
2022-09-16T06:03:24.163Z,1.55
2022-09-16T06:05:15.037Z,1.95
2022-09-16T06:07:05.778Z,2.35
2022-09-16T06:08:58.290Z,1.90
2022-09-16T06:12:39.058Z,1.85
2022-09-16T06:14:29.895Z,1.60
2022-09-16T06:16:20.560Z,1.10
2022-09-16T06:18:11.303Z,1.10
2022-09-16T06:20:03.612Z,0.90
2022-09-16T06:21:53.825Z,1.13
2022-09-16T06:23:44.719Z,1.13
2022-09-16T06:25:35.381Z,1.15
2022-09-16T06:27:26.085Z,0.93
2022-09-16T06:29:17.294Z,0.85
2022-09-16T06:31:10.467Z,0.83
2022-09-16T06:33:01.373Z,1.10
2022-09-16T06:34:52.048Z,1.30
2022-09-16T06:36:45.586Z,1.30
2022-09-16T06:38:36.511Z,1.40
2022-09-16T06:40:26.831Z,1.13
2022-09-16T06:42:17.486Z,0.98
2022-09-16T06:44:08.260Z,1.30
2022-09-16T06:45:59.549Z,1.00
2022-09-16T06:47:50.058Z,1.20
2022-09-16T06:49:40.552Z,1.38
2022-09-16T06:51:31.853Z,1.23
2022-09-16T06:53:23.950Z,1.65
2022-09-16T06:55:14.891Z,1.10
2022-09-16T06:57:11.413Z,1.27
2022-09-16T06:59:03.174Z,1.52
2022-09-16T07:00:53.822Z,1.20
2022-09-16T07:02:43.979Z,1.08
2022-09-16T07:04:35.918Z,1.70
2022-09-16T07:06:45.270Z,1.47
2022-09-16T07:08:41.739Z,2.03
2022-09-16T07:10:32.139Z,1.77
2022-09-16T07:12:23.034Z,2.60
2022-09-16T07:14:13.518Z,1.75
2022-09-16T07:16:13.444Z,1.98
2022-09-16T07:18:04.528Z,1.42
2022-09-16T07:19:55.350Z,1.63
2022-09-16T07:21:46.093Z,2.30
2022-09-16T07:23:38.535Z,1.80
2022-09-16T07:27:26.421Z,1.58
2022-09-16T07:29:18.147Z,1.75
2022-09-16T07:31:11.410Z,1.70
2022-09-16T07:33:01.950Z,1.40
2022-09-16T07:34:52.438Z,1.48
2022-09-16T07:36:47.124Z,1.45
2022-09-16T07:38:38.134Z,1.63
2022-09-16T07:40:30.400Z,1.60
2022-09-16T07:42:21.052Z,1.20
2022-09-16T07:44:13.254Z,1.75
2022-09-16T07:47:54.104Z,1.60
2022-09-16T07:49:45.017Z,1.70
2022-09-16T07:51:36.391Z,1.42
2022-09-16T07:53:29.586Z,2.25
2022-09-16T07:55:20.358Z,1.38
2022-09-16T07:57:12.535Z,1.65
2022-09-16T07:59:04.643Z,1.70
2022-09-16T08:00:55.355Z,1.63
2022-09-16T08:02:45.850Z,1.65
2022-09-16T08:04:36.874Z,2.45
2022-09-16T08:06:29.410Z,1.60
2022-09-16T08:08:19.893Z,1.70
2022-09-16T08:10:10.767Z,1.80
2022-09-16T08:12:03.997Z,1.38
2022-09-16T08:13:58.494Z,1.30
2022-09-16T08:15:49.148Z,1.63
2022-09-16T08:17:39.749Z,1.75
2022-09-16T08:19:30.305Z,2.53
2022-09-16T08:21:21.823Z,2.28
2022-09-16T08:25:03.720Z,1.83
2022-09-16T08:26:54.346Z,2.08
2022-09-16T08:29:07.287Z,1.90
2022-09-16T08:30:58.937Z,1.42
2022-09-16T08:32:55.758Z,1.42
2022-09-16T08:34:46.201Z,1.33
2022-09-16T08:36:37.438Z,2.75
2022-09-16T08:38:28.743Z,1.92
2022-09-16T08:42:35.187Z,1.20
2022-09-16T08:44:32.529Z,1.42
2022-09-16T08:46:29.579Z,1.80
2022-09-16T08:48:29.127Z,1.63
2022-09-16T08:50:23.242Z,1.83
2022-09-16T08:52:18.469Z,1.38
2022-09-16T08:54:11.608Z,1.25
2022-09-16T08:56:04.066Z,1.00
2022-09-16T08:57:57.765Z,1.30
2022-09-16T08:59:53.026Z,1.27
2022-09-16T09:01:49.541Z,1.25
2022-09-16T09:03:42.116Z,1.17
2022-09-16T09:05:36.565Z,1.10
2022-09-16T09:07:33.139Z,1.20
2022-09-16T09:09:36.410Z,1.13
2022-09-16T09:11:34.673Z,1.13
2022-09-16T09:13:57.568Z,3.22
2022-09-16T09:15:53.716Z,1.63
2022-09-16T09:17:54.047Z,2.10
2022-09-16T09:19:58.003Z,1.30
2022-09-16T09:21:54.160Z,1.55
2022-09-16T09:23:57.973Z,1.60
2022-09-16T09:25:55.486Z,1.40
2022-09-16T09:27:54.916Z,1.48
2022-09-16T09:30:02.041Z,1.80
2022-09-16T09:31:58.024Z,1.58
2022-09-16T09:33:56.633Z,2.13
2022-09-16T09:36:02.251Z,1.98
2022-09-16T09:38:14.336Z,1.00
2022-09-16T09:40:11.422Z,1.02
2022-09-16T09:42:13.022Z,1.42
2022-09-16T09:44:33.079Z,2.17
2022-09-16T09:46:26.092Z,1.52
2022-09-16T09:48:20.061Z,1.23
2022-09-16T09:50:16.641Z,1.52
2022-09-16T09:52:12.361Z,2.10
2022-09-16T09:54:06.182Z,1.10
2022-09-16T09:56:01.263Z,1.73
2022-09-16T09:58:01.550Z,1.55
2022-09-16T09:59:58.632Z,1.63
2022-09-16T10:01:54.191Z,1.35
2022-09-16T10:03:44.840Z,2.78
2022-09-16T10:05:36.832Z,1.40
2022-09-16T10:07:27.710Z,1.38
2022-09-16T10:09:19.382Z,1.40
2022-09-16T10:11:16.989Z,2.03
2022-09-16T10:13:08.529Z,1.70
2022-09-16T10:14:59.838Z,1.52
2022-09-16T10:16:51.732Z,1.00
2022-09-16T10:18:43.959Z,0.80
2022-09-16T10:20:38.003Z,1.30
2022-09-16T10:22:29.711Z,0.95
2022-09-16T10:24:32.108Z,1.92
2022-09-16T10:28:21.659Z,1.50
2022-09-16T10:30:15.258Z,1.63
2022-09-16T10:32:06.842Z,1.63
2022-09-16T10:33:57.257Z,2.13
2022-09-16T10:35:54.764Z,1.40
2022-09-16T10:37:49.869Z,1.80
2022-09-16T10:39:42.671Z,1.40
2022-09-16T10:41:35.002Z,1.83
2022-09-16T10:43:26.733Z,1.58
2022-09-16T10:45:25.587Z,1.58
2022-09-16T10:47:19.974Z,1.73
2022-09-16T10:49:12.590Z,1.42
2022-09-16T10:51:05.952Z,1.20
2022-09-16T10:52:56.480Z,1.38
2022-09-16T10:54:47.592Z,1.60
2022-09-16T10:56:48.421Z,1.83
2022-09-16T10:58:38.818Z,1.00
2022-09-16T11:00:32.439Z,1.07
2022-09-16T11:02:35.598Z,1.20
2022-09-16T11:04:37.156Z,0.95
2022-09-16T11:06:48.021Z,1.00
2022-09-16T11:08:49.979Z,0.98
2022-09-16T11:10:44.597Z,1.27
2022-09-16T11:13:07.913Z,1.50
2022-09-16T11:15:06.208Z,1.30
2022-09-16T11:17:09.540Z,1.10
2022-09-16T11:19:06.670Z,1.30
2022-09-16T11:21:14.645Z,1.63
2022-09-16T11:23:11.543Z,1.90
2022-09-16T11:25:24.734Z,1.65
2022-09-16T11:27:21.514Z,1.92
2022-09-16T11:29:36.585Z,2.58
2022-09-16T11:31:40.984Z,1.98
2022-09-16T11:33:36.271Z,1.95
2022-09-16T11:35:47.474Z,2.10
2022-09-16T11:37:42.820Z,2.17
2022-09-16T11:39:46.342Z,1.92
2022-09-16T11:41:41.087Z,2.00
2022-09-16T11:44:13.998Z,2.53
2022-09-16T11:46:09.473Z,2.20
2022-09-16T11:48:22.138Z,2.13
2022-09-16T11:50:22.828Z,1.92
2022-09-16T11:52:27.420Z,2.15
2022-09-16T11:54:37.867Z,2.60
2022-09-16T11:56:35.355Z,2.17
2022-09-16T11:58:35.426Z,2.30
2022-09-16T12:00:26.298Z,2.38
2022-09-16T12:02:22.451Z,2.63
2022-09-16T12:04:18.435Z,1.92
2022-09-16T12:06:11.362Z,1.90
2022-09-16T12:08:08.066Z,1.90
2022-09-16T12:10:04.201Z,2.53
2022-09-16T12:12:04.242Z,2.20
2022-09-16T12:14:05.499Z,2.10
2022-09-16T12:15:57.826Z,2.08
2022-09-16T12:17:53.240Z,2.15
2022-09-16T12:19:49.090Z,2.10
2022-09-16T12:21:45.157Z,1.95
2022-09-16T12:23:39.347Z,2.00
2022-09-16T12:25:35.353Z,2.00
2022-09-16T12:27:35.747Z,1.75
2022-09-16T12:29:30.830Z,2.00
2022-09-16T12:31:27.154Z,1.38
2022-09-16T12:33:20.858Z,1.00
2022-09-16T12:35:14.083Z,1.20
2022-09-16T12:37:23.438Z,1.80
2022-09-16T12:39:14.117Z,1.67
2022-09-16T12:41:16.910Z,1.88
2022-09-16T12:43:44.603Z,1.20
2022-09-16T12:46:05.540Z,1.55
2022-09-16T12:48:04.251Z,1.60
2022-09-16T12:50:13.192Z,1.55
2022-09-16T12:52:21.823Z,1.15
2022-09-16T12:54:32.103Z,2.03
2022-09-16T12:56:42.089Z,2.63
2022-09-16T12:59:05.080Z,1.67
2022-09-16T13:02:50.625Z,1.58
2022-09-16T13:04:43.723Z,2.13
2022-09-16T13:06:36.915Z,1.40
2022-09-16T13:08:30.237Z,1.85
2022-09-16T13:10:40.388Z,1.80
2022-09-16T13:12:43.681Z,1.95
2022-09-16T13:14:43.885Z,1.75
2022-09-16T13:16:36.251Z,2.28
2022-09-16T13:20:31.991Z,1.90
2022-09-16T13:22:26.421Z,2.13
2022-09-16T13:24:22.948Z,2.47
2022-09-16T13:26:13.855Z,3.00
2022-09-16T13:28:34.757Z,2.42
2022-09-16T13:30:35.746Z,2.75
2022-09-16T13:32:28.137Z,2.40
2022-09-16T13:34:18.701Z,2.35
2022-09-16T13:36:17.772Z,1.98
2022-09-16T13:38:22.221Z,2.70
2022-09-16T13:40:20.163Z,2.78
2022-09-16T13:42:17.715Z,1.60
2022-09-16T13:44:30.844Z,2.05
2022-09-16T13:46:30.276Z,2.63
2022-09-16T13:48:23.873Z,1.75
2022-09-16T13:50:16.389Z,2.00
2022-09-16T13:52:10.679Z,3.47
2022-09-16T13:54:01.623Z,1.95
2022-09-16T13:55:53.784Z,2.17
2022-09-16T13:57:55.850Z,1.70
2022-09-16T14:00:02.084Z,2.45
2022-09-16T14:02:02.055Z,2.22
2022-09-16T14:03:58.207Z,2.35
2022-09-16T14:06:07.575Z,2.80
2022-09-16T14:08:03.341Z,2.72
2022-09-16T14:09:59.718Z,2.95
2022-09-16T14:11:56.514Z,2.83
2022-09-16T14:13:51.719Z,3.13
2022-09-16T14:15:46.848Z,2.33
2022-09-16T14:17:39.966Z,2.90
2022-09-16T14:19:34.019Z,2.78
2022-09-16T14:21:24.992Z,2.55
2022-09-16T14:23:17.889Z,2.33
2022-09-16T14:27:21.727Z,2.20
2022-09-16T14:29:12.124Z,2.28
2022-09-16T14:31:08.815Z,2.42
2022-09-16T14:33:01.769Z,2.22
2022-09-16T14:34:52.832Z,3.05
2022-09-16T14:36:46.123Z,2.43
2022-09-16T14:38:46.803Z,2.40
2022-09-16T14:40:39.823Z,2.45
2022-09-16T14:42:30.236Z,2.45
2022-09-16T14:44:23.669Z,2.25
2022-09-16T14:46:15.609Z,1.90
2022-09-16T14:48:08.903Z,2.80
2022-09-16T14:50:04.326Z,2.30
2022-09-16T14:51:57.107Z,2.05
2022-09-16T14:56:03.862Z,2.42
2022-09-16T14:57:54.557Z,2.53
2022-09-16T14:59:45.238Z,2.70
2022-09-16T15:01:37.673Z,2.25
2022-09-16T15:05:28.072Z,1.80
2022-09-16T15:07:24.770Z,2.00
2022-09-16T15:09:19.381Z,2.08
2022-09-16T15:13:13.211Z,2.58
2022-09-16T15:15:10.813Z,2.40
2022-09-16T15:17:07.857Z,2.47
2022-09-16T15:19:04.581Z,2.35
2022-09-16T15:21:09.296Z,2.90
2022-09-16T15:23:01.916Z,2.67
2022-09-16T15:24:55.325Z,2.27
2022-09-16T15:26:46.705Z,2.13
2022-09-16T15:28:37.484Z,2.25
2022-09-16T15:30:28.191Z,2.40
2022-09-16T15:32:22.115Z,2.08
2022-09-16T15:34:20.769Z,2.30
2022-09-16T15:36:36.917Z,2.13
2022-09-16T15:38:28.122Z,2.63
2022-09-16T15:40:22.404Z,2.25
2022-09-16T15:42:14.354Z,2.67
2022-09-16T15:44:08.774Z,2.50
2022-09-16T15:46:01.301Z,2.45
2022-09-16T15:49:45.168Z,1.90
2022-09-16T15:51:38.669Z,2.60
2022-09-16T15:53:41.409Z,2.03
2022-09-16T15:55:36.218Z,2.60
2022-09-16T15:57:30.454Z,2.88
2022-09-16T15:59:25.791Z,1.77
2022-09-16T16:01:18.249Z,2.25
2022-09-16T16:03:17.715Z,2.05
2022-09-16T16:05:10.605Z,2.20
2022-09-16T16:07:03.257Z,1.92
2022-09-16T16:11:07.566Z,2.20
2022-09-16T16:12:59.665Z,2.17
2022-09-16T16:14:50.367Z,2.00
2022-09-16T16:17:01.597Z,2.25
2022-09-16T16:18:52.660Z,2.88
2022-09-16T16:20:43.463Z,2.30
2022-09-16T16:22:34.385Z,2.15
2022-09-16T16:24:25.357Z,2.58
2022-09-16T16:26:16.126Z,2.00
2022-09-16T16:28:06.363Z,2.28
2022-09-16T16:29:56.988Z,3.75
2022-09-16T16:32:05.203Z,2.60
2022-09-16T16:33:57.324Z,3.15
2022-09-16T16:37:47.635Z,2.60
2022-09-16T16:39:38.534Z,3.47
2022-09-16T16:41:28.864Z,3.28
2022-09-16T16:43:19.763Z,3.08
2022-09-16T16:45:11.504Z,3.67
2022-09-16T16:47:02.504Z,3.22
2022-09-16T16:48:52.935Z,2.95
2022-09-16T16:50:44.641Z,3.65
2022-09-16T16:52:35.560Z,3.10
2022-09-16T16:54:27.284Z,3.47
2022-09-16T16:56:17.945Z,2.80
2022-09-16T16:58:08.355Z,2.60
2022-09-16T16:59:58.705Z,3.65
2022-09-16T17:01:52.231Z,3.13
2022-09-16T17:03:44.084Z,3.30
2022-09-16T17:05:34.673Z,3.22
2022-09-16T17:07:27.738Z,3.22
2022-09-16T17:09:18.806Z,3.15
2022-09-16T17:11:10.274Z,3.05
2022-09-16T17:13:01.139Z,3.65
2022-09-16T17:14:51.697Z,3.15
2022-09-16T17:16:42.297Z,3.45
2022-09-16T17:18:34.399Z,3.78
2022-09-16T17:20:24.719Z,3.33
2022-09-16T17:22:15.259Z,2.75
2022-09-16T17:24:07.236Z,3.47
2022-09-16T17:25:57.946Z,3.53
2022-09-16T17:27:48.672Z,3.47
2022-09-16T17:29:39.065Z,3.10
2022-09-16T17:31:31.361Z,3.00
2022-09-16T17:35:12.436Z,3.65
2022-09-16T17:37:02.924Z,2.65
2022-09-16T17:38:56.635Z,3.00
2022-09-16T17:40:48.787Z,3.10
2022-09-16T17:44:30.104Z,3.03
2022-09-16T17:46:20.772Z,3.30
2022-09-16T17:48:11.578Z,2.95
2022-09-16T17:50:02.190Z,3.15
2022-09-16T17:51:52.931Z,3.00
2022-09-16T17:53:43.983Z,3.22
2022-09-16T17:55:34.546Z,2.80
2022-09-16T17:57:29.995Z,2.70
2022-09-16T17:59:23.331Z,2.38
2022-09-16T18:01:15.934Z,2.55
2022-09-16T18:04:56.920Z,3.47
2022-09-16T18:06:47.348Z,3.17
2022-09-16T18:08:38.043Z,3.10
2022-09-16T18:10:28.459Z,2.13
2022-09-16T18:12:19.098Z,2.92
2022-09-16T18:14:12.978Z,3.83
2022-09-16T18:16:04.698Z,3.70
2022-09-16T18:17:55.250Z,2.88
2022-09-16T18:19:45.820Z,3.92
2022-09-16T18:21:36.246Z,3.67
2022-09-16T18:23:26.344Z,4.45
2022-09-16T18:25:16.753Z,4.05
2022-09-16T18:27:07.179Z,3.50
2022-09-16T18:29:17.906Z,3.58
2022-09-16T18:31:11.086Z,3.10
2022-09-16T18:33:01.881Z,3.58
2022-09-16T18:34:52.114Z,3.58
2022-09-16T18:36:42.778Z,4.20
2022-09-16T18:38:33.999Z,3.17
2022-09-16T18:40:24.591Z,3.67
2022-09-16T18:42:15.633Z,3.33
2022-09-16T18:44:10.344Z,3.42
2022-09-16T18:46:13.820Z,3.53
2022-09-16T18:48:04.414Z,3.60
2022-09-16T18:49:54.935Z,4.43
2022-09-16T18:51:50.969Z,4.25
2022-09-16T18:53:42.452Z,5.40
2022-09-16T18:55:32.926Z,3.83
2022-09-16T18:57:23.268Z,3.38
2022-09-16T18:59:23.665Z,4.03
2022-09-16T19:01:27.018Z,4.50
2022-09-16T19:03:18.078Z,6.03
2022-09-16T19:05:08.607Z,3.80
2022-09-16T19:07:02.164Z,4.55
2022-09-16T19:08:52.583Z,3.95
2022-09-16T19:10:42.974Z,3.95
2022-09-16T19:12:38.427Z,3.85
2022-09-16T19:14:29.601Z,3.63
2022-09-16T19:16:21.807Z,4.60
2022-09-16T19:18:12.727Z,3.72
2022-09-16T19:20:03.720Z,4.60
2022-09-16T19:21:54.203Z,4.47
2022-09-16T19:23:45.915Z,4.15
2022-09-16T19:25:36.595Z,4.72
2022-09-16T19:27:26.871Z,4.25
2022-09-16T19:29:17.474Z,4.10
2022-09-16T19:31:09.839Z,4.75
2022-09-16T19:33:01.627Z,4.50
2022-09-16T19:34:52.396Z,4.10
2022-09-16T19:36:43.297Z,4.28
2022-09-16T19:38:35.330Z,3.78
2022-09-16T19:40:26.143Z,3.72
2022-09-16T19:42:16.406Z,4.38
2022-09-16T19:44:09.497Z,3.13
2022-09-16T19:46:04.752Z,4.65
2022-09-16T19:47:55.449Z,3.00
2022-09-16T19:49:47.208Z,4.22
2022-09-16T19:51:37.890Z,4.03
2022-09-16T19:53:28.511Z,3.75
2022-09-16T19:55:19.402Z,3.78
2022-09-16T19:57:09.980Z,3.72
2022-09-16T19:59:00.670Z,4.25
2022-09-16T20:00:56.191Z,4.22
2022-09-16T20:02:47.020Z,3.70
2022-09-16T20:04:37.591Z,3.92
2022-09-16T20:06:30.872Z,3.65
2022-09-16T20:08:21.390Z,2.95
2022-09-16T20:10:11.991Z,3.25
2022-09-16T20:12:02.856Z,3.13
2022-09-16T20:13:54.325Z,2.65
2022-09-16T20:15:44.912Z,2.20
2022-09-16T20:17:35.335Z,3.20
2022-09-16T20:19:26.416Z,2.30
2022-09-16T20:21:19.398Z,2.58
2022-09-16T20:23:11.732Z,3.15
2022-09-16T20:27:13.128Z,2.80
2022-09-16T20:29:04.303Z,3.28
2022-09-16T20:30:54.881Z,3.67
2022-09-16T20:32:45.333Z,3.83
2022-09-16T20:34:36.020Z,3.88
2022-09-16T20:36:28.758Z,3.78
2022-09-16T20:38:21.087Z,3.22
2022-09-16T20:40:11.969Z,3.05
2022-09-16T20:42:02.500Z,3.70
2022-09-16T20:43:53.420Z,3.17
2022-09-16T20:45:44.150Z,3.42
2022-09-16T20:47:34.864Z,3.45
2022-09-16T20:49:25.579Z,3.25
2022-09-16T20:51:18.136Z,3.40
2022-09-16T20:55:01.306Z,2.83
2022-09-16T20:56:51.930Z,2.88
2022-09-16T20:58:43.298Z,2.72
2022-09-16T21:00:33.771Z,4.25
2022-09-16T21:02:24.583Z,3.28
2022-09-16T21:04:16.428Z,3.28
2022-09-16T21:06:08.998Z,2.88
2022-09-16T21:07:59.644Z,3.17
2022-09-16T21:09:50.207Z,3.25
2022-09-16T21:11:42.217Z,4.15
2022-09-16T21:15:23.871Z,3.95
2022-09-16T21:17:14.557Z,3.00
2022-09-16T21:19:06.188Z,2.42
2022-09-16T21:21:01.679Z,3.40
2022-09-16T21:22:51.996Z,2.90
2022-09-16T21:24:42.419Z,2.70
2022-09-16T21:26:34.574Z,4.35
2022-09-16T21:28:26.420Z,3.17
2022-09-16T21:30:17.057Z,2.58
2022-09-16T21:32:07.482Z,3.45
2022-09-16T21:33:58.356Z,2.40
2022-09-16T21:35:52.216Z,2.03
2022-09-16T21:37:42.769Z,2.13
2022-09-16T21:39:33.618Z,3.08
2022-09-16T21:41:25.119Z,2.67
2022-09-16T21:43:15.877Z,2.33
2022-09-16T21:45:08.607Z,2.80
2022-09-16T21:46:59.514Z,2.25
2022-09-16T21:48:51.033Z,2.90
2022-09-16T21:50:41.870Z,2.55
2022-09-16T21:52:32.553Z,2.92
2022-09-16T21:54:23.447Z,3.22
2022-09-16T21:56:15.654Z,2.58
2022-09-16T21:58:06.367Z,3.28
2022-09-16T21:59:56.767Z,2.72
2022-09-16T22:01:49.140Z,2.95
2022-09-16T22:03:41.042Z,2.40
2022-09-16T22:05:31.801Z,2.63
2022-09-16T22:07:22.350Z,3.03
2022-09-16T22:09:12.850Z,2.65
2022-09-16T22:11:04.391Z,2.60
2022-09-16T22:12:55.165Z,2.78
2022-09-16T22:14:45.832Z,2.55
2022-09-16T22:16:37.199Z,2.97
2022-09-16T22:18:30.310Z,3.00
2022-09-16T22:20:21.956Z,3.17
2022-09-16T22:22:12.635Z,2.83
2022-09-16T22:24:04.515Z,2.40
2022-09-16T22:25:58.872Z,2.83
2022-09-16T22:27:52.322Z,3.15
2022-09-16T22:29:43.048Z,3.45
2022-09-16T22:31:34.212Z,2.58
2022-09-16T22:33:28.951Z,2.95
2022-09-16T22:35:19.656Z,2.83
2022-09-16T22:37:16.276Z,2.97
2022-09-16T22:39:10.881Z,3.78
2022-09-16T22:41:02.083Z,2.67
2022-09-16T22:42:52.540Z,2.90
2022-09-16T22:44:43.094Z,3.08
2022-09-16T22:46:34.850Z,4.10
2022-09-16T22:48:25.531Z,3.28
2022-09-16T22:50:17.993Z,3.67
2022-09-16T22:53:59.047Z,3.13
2022-09-16T22:55:54.528Z,3.47
2022-09-16T22:57:45.085Z,3.40
2022-09-16T22:59:35.633Z,2.88
2022-09-16T23:01:27.579Z,3.03
2022-09-16T23:05:09.382Z,4.38
2022-09-16T23:07:01.191Z,3.92
2022-09-16T23:08:52.367Z,4.20
2022-09-16T23:10:42.689Z,3.13
2022-09-16T23:12:35.362Z,2.92
2022-09-16T23:14:25.986Z,3.80
2022-09-16T23:16:18.428Z,2.78
2022-09-16T23:18:09.463Z,2.78
2022-09-16T23:20:00.203Z,3.03
2022-09-16T23:21:50.632Z,3.13
2022-09-16T23:23:44.177Z,3.22
2022-09-16T23:25:35.177Z,3.00
2022-09-16T23:27:25.665Z,2.70
2022-09-16T23:29:16.980Z,2.38
2022-09-16T23:31:09.395Z,2.90
2022-09-16T23:33:00.191Z,3.33
2022-09-16T23:34:50.792Z,2.67
2022-09-16T23:36:41.538Z,3.45
2022-09-16T23:38:33.478Z,2.65
2022-09-16T23:40:25.542Z,2.13
2022-09-16T23:44:06.658Z,2.30
2022-09-16T23:45:57.425Z,2.25
2022-09-16T23:47:47.789Z,2.20
2022-09-16T23:49:38.359Z,1.80
2022-09-16T23:51:29.860Z,2.35
2022-09-16T23:53:20.308Z,1.80
2022-09-16T23:55:10.569Z,2.22
2022-09-16T23:57:02.322Z,2.50
2022-09-16T23:58:53.006Z,2.17
